• Join FlightAware (Why Join?)
  • Login
  • US Flag GB Flag 
21:41 EDT


 

Airport Tracker/Info


-or-


 

Live Flight TrackerFlight Track Log ✈ SKW4664 ✈ 03-May-2013 ✈ KMSP - KFSD

Flight Track Log - Related Links

Times and Time Zones

All times are in EDT time to prevent confusion due to time zone crossing. See the SKW4664 flight status page for this flight to view local times or setup timezone preferences in your user account.

Time Position Orientation Groundspeed Altitude Reporting Facility
EDT Latitude Longitude Course Direction KTS MPH feet Rate Location/Type
10:34 44.9000 -93.3000 235° Southwest 224 258 4,100  Level Minneapolis TRACON
10:35 44.8606 -93.3950 240° Southwest 269 310 6,300 2,400 Climbing Minneapolis Center
10:36 44.6992 -93.6015 235° Southwest  Level FlightAware Approximate
10:36 44.8094 -93.4844 231° Southwest 296 341 9,200  Level Minneapolis Center
10:37 44.6340 -93.7321 235° Southwest  Level FlightAware Approximate
10:37 44.7600 -93.5714 231° Southwest 289 333 11,900  Level Minneapolis Center
10:38 44.5634 -93.8554 230° Southwest  Level FlightAware Approximate
10:38 44.7122 -93.6689 235° Southwest 310 357 13,600  Level Minneapolis Center
10:39 44.4932 -93.9803 235° Southwest  Level FlightAware Approximate
10:39 44.6728 -93.7828 244° Southwest 324 373 15,500  Level Minneapolis Center
10:40 44.6247 -93.9225 244° Southwest 334 384 17,800 1,680 Climbing Minneapolis Center
10:41 44.5833 -94.0406 244° Southwest 340 391 19,000 1,200 Climbing Minneapolis Center
10:42 44.5406 -94.1619 244° Southwest 347 399 20,400 1,260 Climbing Minneapolis Center
10:43 44.4972 -94.2858 244° Southwest 355 409 21,700 1,260 Climbing Minneapolis Center
10:44 44.4536 -94.4067 243° Southwest 351 404 23,000 600 Climbing Minneapolis Center
10:45 44.4189 -94.5064 244° Southwest 353 406 23,000  Level Minneapolis Center
10:46 44.3564 -94.6756 243° Southwest 354 407 23,000  Level Minneapolis Center
10:47 44.3119 -94.7972 243° Southwest 352 405 23,000  Level Minneapolis Center
10:48 44.2772 -94.8947 244° Southwest 352 405 23,000  Level Minneapolis Center
10:49 44.2225 -95.0422 243° Southwest 354 407 23,000  Level Minneapolis Center
10:50 44.1761 -95.1689 243° Southwest 363 418 23,000  Level Minneapolis Center
10:51 44.1281 -95.2981 243° Southwest 374 430 23,000  Level Minneapolis Center
10:53 44.0806 -95.4278 243° Southwest 376 433 23,000 -360 Level Minneapolis Center
10:54 44.0233 -95.5806 243° Southwest 371 427 22,200 -1,920 Descending Minneapolis Center
10:55 43.9650 -95.7361 243° Southwest 374 430 19,100 -2,580 Descending Minneapolis Center
10:56 43.9175 -95.8603 242° Southwest 364 419 16,900 -2,100 Descending Minneapolis Center
10:57 43.8781 -95.9633 242° Southwest 372 428 14,900 -2,400 Descending Minneapolis Center
10:58 43.7983 -96.0919 229° Southwest 361 415 12,100 -2,100 Descending Minneapolis Center
10:59 43.7331 -96.1864 226° Southwest 349 402 10,600 -1,500 Descending Minneapolis Center
11:00 43.6736 -96.2700 226° Southwest 329 379 9,100 -1,440 Descending Minneapolis Center
11:01 43.6156 -96.3489 225° Southwest 310 357 7,700 -1,320 Descending Minneapolis Center
11:02 43.5586 -96.4267 225° Southwest 298 343 6,400 -1,020 Descending Minneapolis Center
11:03 43.5042 -96.5017 225° Southwest 288 331 5,700 -600 Descending Minneapolis Center
11:04 43.4697 -96.5883 241° Southwest 247 284 5,200 -660 Descending Minneapolis Center
11:05 43.4694 -96.6614 270° West 210 242 4,400 -840 Descending Minneapolis Center